Time;durP1;ratioP1;P1;durP2;ratioP2;P2;SDS_P1;SDS_P2;PMS_P1;PMS_P2;Temp;Humidity;BMP_temperature;BMP_pressure;BME280_temperature;BME280_humidity;BME280_pressure;Samples;Min_cycle;Max_cycle;Signal;HPM_P1;HPM_P2
2022/09/19 00:01:56;;;;;;;16.20;10.30;;;;;;;7.46;85.86;97890.04;88373;1275;22783;-73
2022/09/19 00:04:02;;;;;;;23.40;10.90;;;;;;;7.47;85.79;97887.89;88448;1274;99656;-72
2022/09/19 00:06:05;;;;;;;28.80;11.60;;;;;;;7.48;86.00;97889.01;88253;1275;22552;-73
2022/09/19 00:08:09;;;;;;;16.50;10.70;;;;;;;7.50;85.66;97881.75;88475;1273;22697;-72
2022/09/19 00:10:10;;;;;;;18.40;11.40;;;;;;;7.52;85.94;97882.02;88251;1275;99555;-73
2022/09/19 00:12:12;;;;;;;23.10;11.20;;;;;;;7.54;86.00;97878.60;88400;1273;26589;-72
2022/09/19 00:14:15;;;;;;;18.80;10.10;;;;;;;7.57;86.00;97878.58;88380;1274;22677;-72
2022/09/19 00:16:38;;;;;;;23.80;10.90;;;;;;;7.60;85.99;97876.52;88416;1274;99280;-72
2022/09/19 00:18:40;;;;;;;24.00;10.40;;;;;;;7.61;85.83;97874.52;89363;1274;22783;-72
2022/09/19 00:20:49;;;;;;;26.90;10.90;;;;;;;7.61;85.78;97873.81;88328;1274;22701;-72
2022/09/19 00:25:12;;;;;;;18.80;10.10;;;;;;;7.66;85.89;97872.69;88466;1275;22633;-72
2022/09/19 00:27:18;;;;;;;15.10;11.10;;;;;;;7.66;85.92;97872.85;88400;1273;22556;-72
2022/09/19 00:29:20;;;;;;;20.20;10.90;;;;;;;7.66;85.85;97870.73;88217;1274;99455;-73
2022/09/19 00:31:22;;;;;;;19.20;10.50;;;;;;;7.69;85.83;97868.53;88340;1274;23481;-72
2022/09/19 00:33:27;;;;;;;14.20;10.00;;;;;;;7.71;85.88;97865.61;88363;1274;22590;-73
2022/09/19 00:35:32;;;;;;;20.90;10.90;;;;;;;7.72;85.70;97865.55;88407;1274;100261;-75
2022/09/19 00:37:34;;;;;;;19.50;10.40;;;;;;;7.74;85.94;97865.11;88377;1275;22799;-73
2022/09/19 00:39:37;;;;;;;14.30;9.50;;;;;;;7.75;85.67;97860.86;88216;1276;99635;-73
2022/09/19 00:41:40;;;;;;;20.00;10.30;;;;;;;7.77;86.00;97861.84;88332;1275;24206;-73
2022/09/19 00:43:52;;;;;;;23.40;11.20;;;;;;;7.78;86.34;97862.23;88364;1275;25385;-73
2022/09/19 00:45:54;;;;;;;18.30;10.00;;;;;;;7.80;85.74;97862.84;88359;1273;99147;-73
2022/09/19 00:47:55;;;;;;;15.20;9.80;;;;;;;7.81;86.17;97862.64;88457;1273;25453;-73
2022/09/19 00:49:59;;;;;;;16.30;10.10;;;;;;;7.82;86.08;97861.16;88493;1275;22729;-74
2022/09/19 00:52:04;;;;;;;19.20;10.20;;;;;;;7.82;86.16;97857.33;88557;1274;100952;-73
2022/09/19 00:54:11;;;;;;;20.10;9.50;;;;;;;7.83;85.82;97859.52;88512;1274;23108;-74
2022/09/19 00:56:15;;;;;;;18.50;8.90;;;;;;;7.82;86.01;97854.17;88532;1274;23050;-72
2022/09/19 00:58:25;;;;;;;19.30;9.60;;;;;;;7.83;85.98;97858.14;88302;1275;99842;-72
2022/09/19 01:00:28;;;;;;;19.10;8.90;;;;;;;7.84;86.17;97859.48;88436;1275;22524;-73
2022/09/19 01:02:32;;;;;;;22.90;9.00;;;;;;;7.83;86.02;97860.05;88404;1275;24341;-72
2022/09/19 01:04:38;;;;;;;16.10;8.80;;;;;;;7.85;86.01;97863.29;88355;1275;99293;-72
2022/09/19 01:06:52;;;;;;;21.70;8.70;;;;;;;7.86;86.04;97864.97;88344;1275;24872;-71
2022/09/19 01:09:03;;;;;;;15.80;8.50;;;;;;;7.84;86.28;97865.10;88473;1274;23127;-74
2022/09/19 01:11:16;;;;;;;11.90;9.50;;;;;;;7.81;86.11;97870.98;88362;1274;100737;-72
2022/09/19 01:13:59;;;;;;;15.00;8.60;;;;;;;7.82;85.98;97869.74;88506;1274;22585;-72
2022/09/19 01:16:06;;;;;;;12.70;8.70;;;;;;;7.81;86.03;97869.06;88280;1271;100658;-72
2022/09/19 01:18:09;;;;;;;13.60;8.60;;;;;;;7.80;86.08;97867.75;88348;1275;25466;-72
2022/09/19 01:20:23;;;;;;;18.00;9.00;;;;;;;7.79;85.99;97865.36;88343;1274;24260;-72
2022/09/19 01:22:27;;;;;;;19.10;9.40;;;;;;;7.77;86.23;97862.83;88303;1274;101578;-74
2022/09/19 01:25:01;;;;;;;12.90;8.90;;;;;;;7.78;86.32;97863.66;88450;1273;26631;-72
2022/09/19 01:27:05;;;;;;;11.10;8.90;;;;;;;7.78;86.21;97862.09;88101;1281;22845;-73
2022/09/19 01:29:20;;;;;;;17.40;10.10;;;;;;;7.78;86.13;97869.96;87932;1281;101340;-73
2022/09/19 01:31:29;;;;;;;16.70;10.40;;;;;;;7.79;86.28;97867.09;88103;1281;22564;-72
2022/09/19 01:33:31;;;;;;;19.50;10.70;;;;;;;7.80;86.47;97867.05;87920;1284;22681;-73
2022/09/19 01:35:39;;;;;;;12.30;10.10;;;;;;;7.80;86.35;97866.52;87987;1281;100614;-73
2022/09/19 01:38:07;;;;;;;13.30;10.20;;;;;;;7.81;86.29;97868.91;87935;1284;22761;-72
2022/09/19 01:40:10;;;;;;;16.20;10.30;;;;;;;7.81;86.38;97868.91;88673;1280;100512;-73
2022/09/19 01:42:14;;;;;;;13.60;10.20;;;;;;;7.82;86.36;97870.46;88063;1281;22726;-73
2022/09/19 01:44:22;;;;;;;21.20;10.80;;;;;;;7.82;86.46;97866.38;88071;1282;22520;-73
2022/09/19 01:46:38;;;;;;;15.40;10.70;;;;;;;7.84;86.39;97866.31;87911;1281;109964;-72
2022/09/19 01:49:00;;;;;;;11.50;10.20;;;;;;;7.86;86.34;97869.72;88056;1281;22690;-73
2022/09/19 01:51:21;;;;;;;19.60;10.70;;;;;;;7.88;86.11;97874.15;88056;1281;22565;-73
2022/09/19 01:53:45;;;;;;;17.30;10.10;;;;;;;7.89;86.49;97874.10;88053;1281;100062;-74
2022/09/19 01:56:10;;;;;;;24.00;10.10;;;;;;;7.89;86.49;97874.08;88111;1281;22653;-73
2022/09/19 01:58:26;;;;;;;22.90;10.80;;;;;;;7.91;86.76;97875.34;88041;1281;99361;-72
2022/09/19 02:00:28;;;;;;;12.00;9.50;;;;;;;7.92;86.50;97874.77;87607;1287;22581;-73
2022/09/19 02:02:49;;;;;;;15.10;10.00;;;;;;;7.93;86.43;97877.55;87912;1281;24290;-73
2022/09/19 02:05:02;;;;;;;19.40;9.90;;;;;;;7.93;86.36;97879.30;88142;1278;99714;-72
2022/09/19 02:07:23;;;;;;;10.70;8.80;;;;;;;7.94;86.28;97880.27;88248;1274;24273;-74
2022/09/19 02:09:42;;;;;;;15.70;10.30;;;;;;;7.94;86.52;97882.54;88312;1274;25342;-74
2022/09/19 02:11:45;;;;;;;13.50;10.00;;;;;;;7.94;86.40;97882.86;88449;1275;22643;-72
2022/09/19 02:13:54;;;;;;;14.10;10.10;;;;;;;7.95;86.60;97886.00;88256;1276;22715;-73
2022/09/19 02:16:08;;;;;;;12.00;9.70;;;;;;;7.96;86.45;97889.79;88710;1275;99172;-74
2022/09/19 02:18:26;;;;;;;12.50;8.80;;;;;;;7.97;86.68;97893.05;88213;1277;24175;-73
2022/09/19 02:20:37;;;;;;;11.80;8.40;;;;;;;7.97;86.67;97894.06;88265;1275;22548;-73
2022/09/19 02:22:45;;;;;;;14.90;9.30;;;;;;;7.97;86.63;97887.95;88228;1274;99264;-73
2022/09/19 02:24:49;;;;;;;9.20;8.20;;;;;;;7.97;86.57;97893.56;88376;1274;22638;-73
2022/09/19 02:26:52;;;;;;;8.20;7.50;;;;;;;7.96;86.78;97897.84;88351;1277;22911;-73
2022/09/19 02:28:57;;;;;;;9.10;6.80;;;;;;;7.93;86.30;97891.30;88465;1274;98863;-73
2022/09/19 02:30:59;;;;;;;10.40;8.00;;;;;;;7.92;86.53;97894.36;88527;1274;25262;-73
2022/09/19 02:33:07;;;;;;;8.90;8.00;;;;;;;7.91;86.70;97893.91;88431;1274;22726;-73
2022/09/19 02:35:08;;;;;;;9.70;8.50;;;;;;;7.90;86.64;97897.08;88232;1274;98876;-72
2022/09/19 02:37:26;;;;;;;9.10;8.30;;;;;;;7.89;86.43;97901.04;88348;1275;22706;-73
2022/09/19 02:39:36;;;;;;;13.70;8.00;;;;;;;7.89;86.39;97901.91;88384;1274;25339;-74
2022/09/19 02:42:08;;;;;;;8.90;8.00;;;;;;;7.86;86.66;97899.95;88268;1274;24765;-74
2022/09/19 02:44:20;;;;;;;9.10;8.30;;;;;;;7.86;86.63;97903.27;88291;1275;24416;-73
2022/09/19 02:46:35;;;;;;;8.90;7.90;;;;;;;7.86;86.59;97902.05;88269;1274;98908;-73
2022/09/19 02:48:43;;;;;;;9.60;8.40;;;;;;;7.86;86.35;97904.34;88241;1277;22594;-75
2022/09/19 02:50:50;;;;;;;13.70;9.50;;;;;;;7.85;86.63;97905.27;88340;1274;22732;-74
2022/09/19 02:52:54;;;;;;;8.80;7.90;;;;;;;7.83;86.12;97909.00;88337;1274;99155;-73
2022/09/19 02:55:13;;;;;;;11.10;7.30;;;;;;;7.81;86.55;97908.27;88344;1277;22587;-73
2022/09/19 02:57:19;;;;;;;7.50;6.80;;;;;;;7.77;86.46;97910.91;88442;1274;22498;-72
2022/09/19 02:59:28;;;;;;;7.10;6.50;;;;;;;7.74;86.43;97910.23;88321;1274;99269;-73
2022/09/19 03:01:34;;;;;;;7.50;6.20;;;;;;;7.70;86.26;97913.39;88393;1275;22813;-74
2022/09/19 03:06:11;;;;;;;7.10;6.50;;;;;;;7.60;86.18;97907.96;88390;1274;22717;-72
2022/09/19 03:08:15;;;;;;;7.50;6.60;;;;;;;7.57;86.26;97908.15;88465;1274;22938;-73
2022/09/19 03:10:22;;;;;;;7.00;6.40;;;;;;;7.54;86.39;97909.02;88389;1273;99543;-73
2022/09/19 03:12:37;;;;;;;7.30;6.50;;;;;;;7.51;86.09;97914.05;88290;1275;22706;-73
2022/09/19 03:14:39;;;;;;;11.60;7.00;;;;;;;7.47;86.24;97914.26;88569;1274;22815;-72
2022/09/19 03:16:47;;;;;;;10.00;7.60;;;;;;;7.44;86.31;97915.44;88295;1274;99132;-74
2022/09/19 03:18:54;;;;;;;15.20;8.50;;;;;;;7.43;86.28;97919.38;88285;1274;22724;-73
2022/09/19 03:21:03;;;;;;;13.30;8.80;;;;;;;7.41;86.61;97919.13;88609;1274;25512;-72
2022/09/19 03:23:10;;;;;;;12.40;9.50;;;;;;;7.38;86.45;97920.85;89019;1273;99476;-72
2022/09/19 03:25:14;;;;;;;10.70;9.60;;;;;;;7.36;86.26;97927.77;88549;1275;23025;-72
2022/09/19 03:27:24;;;;;;;12.00;9.90;;;;;;;7.32;86.34;97923.10;88544;1273;24380;-72
2022/09/19 03:29:25;;;;;;;12.20;9.80;;;;;;;7.32;86.46;97933.00;88427;1274;99285;-73
2022/09/19 03:31:27;;;;;;;13.10;9.60;;;;;;;7.31;86.39;97935.01;88417;1275;22589;-73
2022/09/19 03:33:28;;;;;;;13.40;10.80;;;;;;;7.31;86.21;97932.55;88491;1271;24222;-74
2022/09/19 03:35:30;;;;;;;17.30;11.40;;;;;;;7.31;86.34;97934.80;88327;1274;99179;-72
2022/09/19 03:37:32;;;;;;;12.50;11.10;;;;;;;7.31;86.46;97938.14;88426;1273;24472;-73
2022/09/19 03:39:34;;;;;;;12.20;11.00;;;;;;;7.32;86.46;97939.33;88332;1274;22601;-73
2022/09/19 03:41:38;;;;;;;12.10;11.00;;;;;;;7.31;86.46;97941.11;88802;1273;23399;-74
2022/09/19 03:43:42;;;;;;;13.20;11.70;;;;;;;7.32;86.35;97943.54;88396;1274;22680;-73
2022/09/19 03:45:44;;;;;;;11.60;10.30;;;;;;;7.33;86.43;97945.40;88385;1273;99741;-73
2022/09/19 03:47:46;;;;;;;11.80;10.60;;;;;;;7.33;86.48;97951.48;88353;1273;24311;-74
2022/09/19 03:49:50;;;;;;;14.50;10.10;;;;;;;7.33;86.46;97948.34;88392;1273;23492;-74
2022/09/19 03:51:51;;;;;;;11.30;10.30;;;;;;;7.34;86.38;97948.50;88398;1273;99438;-73
2022/09/19 03:53:53;;;;;;;10.70;9.70;;;;;;;7.33;86.67;97948.50;88354;1274;22717;-74
2022/09/19 03:55:55;;;;;;;9.90;9.00;;;;;;;7.35;86.56;97945.28;88365;1274;24457;-73
2022/09/19 03:57:56;;;;;;;15.40;10.80;;;;;;;7.35;86.50;97946.35;88279;1274;100504;-73
2022/09/19 03:59:58;;;;;;;13.50;11.00;;;;;;;7.36;86.61;97948.74;88405;1273;25679;-73
2022/09/19 04:02:00;;;;;;;13.50;11.70;;;;;;;7.36;86.66;97945.25;88364;1273;23275;-75
2022/09/19 04:04:02;;;;;;;14.90;11.90;;;;;;;7.37;86.76;97945.39;88335;1273;99200;-74
2022/09/19 04:06:05;;;;;;;12.90;11.60;;;;;;;7.38;86.84;97942.89;88297;1275;23097;-74
2022/09/19 04:08:07;;;;;;;13.80;12.30;;;;;;;7.37;86.77;97944.34;88272;1274;22603;-73
2022/09/19 04:10:09;;;;;;;14.40;12.90;;;;;;;7.36;86.56;97942.63;88241;1273;99321;-73
2022/09/19 04:12:13;;;;;;;18.80;12.30;;;;;;;7.37;86.63;97940.00;88361;1274;22628;-74
2022/09/19 04:14:17;;;;;;;13.60;12.20;;;;;;;7.37;86.63;97939.44;88287;1275;23246;-74
2022/09/19 04:16:18;;;;;;;15.40;12.40;;;;;;;7.36;86.64;97936.17;88317;1273;99140;-74
2022/09/19 04:18:20;;;;;;;18.10;13.10;;;;;;;7.35;86.47;97939.88;88352;1274;25424;-73
2022/09/19 04:20:23;;;;;;;16.40;13.60;;;;;;;7.36;86.66;97942.80;88437;1273;22693;-73
2022/09/19 04:22:25;;;;;;;14.90;13.20;;;;;;;7.36;86.68;97943.85;88289;1273;99568;-72
2022/09/19 04:24:29;;;;;;;14.00;12.60;;;;;;;7.36;86.59;97946.47;88366;1273;22680;-74
2022/09/19 04:26:31;;;;;;;17.50;12.90;;;;;;;7.35;86.61;97953.86;88274;1274;22879;-75
2022/09/19 04:28:32;;;;;;;20.10;12.50;;;;;;;7.35;86.46;97955.61;88380;1273;99094;-73
2022/09/19 04:30:36;;;;;;;14.50;13.00;;;;;;;7.35;86.42;97959.82;88504;1274;22787;-74
2022/09/19 04:32:39;;;;;;;15.10;13.40;;;;;;;7.35;86.55;97961.02;88367;1273;22647;-74
2022/09/19 04:34:43;;;;;;;18.90;12.30;;;;;;;7.35;86.46;97964.02;88203;1274;99570;-74
2022/09/19 04:36:46;;;;;;;15.40;13.50;;;;;;;7.35;86.73;97962.26;88206;1277;22744;-73
2022/09/19 04:38:49;;;;;;;24.70;15.60;;;;;;;7.37;86.85;97968.61;88531;1273;22567;-74
2022/09/19 04:40:56;;;;;;;23.30;13.20;;;;;;;7.39;86.73;97973.90;88384;1274;99133;-74
2022/09/19 04:42:58;;;;;;;15.80;12.90;;;;;;;7.41;86.62;97976.42;88286;1275;22655;-73
2022/09/19 04:45:00;;;;;;;23.20;14.10;;;;;;;7.43;86.62;97972.85;88416;1274;22650;-75
2022/09/19 04:47:05;;;;;;;20.30;14.50;;;;;;;7.45;86.72;97973.95;88358;1272;99807;-75
2022/09/19 04:49:08;;;;;;;20.70;13.10;;;;;;;7.48;86.64;97980.46;88453;1273;26166;-73
2022/09/19 04:51:11;;;;;;;17.70;14.30;;;;;;;7.49;86.61;97984.21;88508;1273;23608;-73
2022/09/19 04:53:13;;;;;;;17.40;13.40;;;;;;;7.51;86.92;97984.15;88231;1275;99290;-75
2022/09/19 04:55:15;;;;;;;16.50;13.30;;;;;;;7.51;86.68;97985.19;88497;1273;22715;-73
2022/09/19 04:57:16;;;;;;;22.90;14.10;;;;;;;7.52;86.92;97988.27;88516;1273;22666;-73
2022/09/19 04:59:18;;;;;;;20.00;14.50;;;;;;;7.52;86.88;97989.33;88340;1273;99304;-74
2022/09/19 05:01:20;;;;;;;21.20;15.30;;;;;;;7.53;86.93;97988.95;88313;1275;23149;-74
2022/09/19 05:03:25;;;;;;;19.90;15.20;;;;;;;7.52;86.85;97990.19;88420;1273;22565;-75
2022/09/19 05:05:27;;;;;;;26.10;16.40;;;;;;;7.54;86.95;97996.39;88612;1274;99130;-74
2022/09/19 05:07:33;;;;;;;22.00;16.10;;;;;;;7.54;86.95;97997.96;88417;1272;24215;-73
2022/09/19 05:09:35;;;;;;;26.60;17.10;;;;;;;7.54;86.85;98000.40;88371;1275;22607;-74
2022/09/19 05:11:43;;;;;;;25.10;18.80;;;;;;;7.55;86.68;98000.58;88431;1273;25300;-75
2022/09/19 05:13:45;;;;;;;25.40;19.40;;;;;;;7.55;86.67;97998.98;88414;1274;24216;-74
2022/09/19 05:15:47;;;;;;;24.50;18.40;;;;;;;7.57;86.73;98004.08;88298;1274;100259;-75
2022/09/19 05:17:52;;;;;;;32.10;19.10;;;;;;;7.59;86.92;98008.20;88384;1273;22890;-73
2022/09/19 05:19:54;;;;;;;27.10;17.50;;;;;;;7.60;87.12;98008.85;88503;1273;22621;-74
2022/09/19 05:21:55;;;;;;;18.40;16.20;;;;;;;7.61;86.58;98009.13;88436;1273;99348;-74
2022/09/19 05:23:57;;;;;;;26.50;17.00;;;;;;;7.61;86.76;98015.25;88639;1271;22732;-74
2022/09/19 05:26:06;;;;;;;25.90;17.30;;;;;;;7.62;86.69;98014.89;88513;1271;25721;-75
2022/09/19 05:28:09;;;;;;;19.60;15.20;;;;;;;7.63;87.02;98015.35;88351;1276;99287;-73
2022/09/19 05:30:11;;;;;;;22.80;15.20;;;;;;;7.63;87.15;98021.98;88399;1273;22626;-74
2022/09/19 05:32:13;;;;;;;24.00;16.40;;;;;;;7.63;86.91;98019.73;88514;1273;22513;-73
2022/09/19 05:34:16;;;;;;;22.70;15.80;;;;;;;7.64;86.99;98021.75;88408;1273;99112;-74
2022/09/19 05:36:18;;;;;;;23.10;14.70;;;;;;;7.65;86.70;98027.48;88665;1274;22891;-73
2022/09/19 05:38:20;;;;;;;17.40;14.00;;;;;;;7.65;86.98;98029.39;88512;1274;22565;-73
2022/09/19 05:40:22;;;;;;;19.90;14.10;;;;;;;7.64;86.73;98030.50;88476;1274;99246;-74
2022/09/19 05:42:24;;;;;;;22.10;15.20;;;;;;;7.63;86.85;98033.02;88545;1274;25524;-73
2022/09/19 05:44:27;;;;;;;22.50;14.70;;;;;;;7.63;86.83;98035.06;88506;1274;23223;-74
2022/09/19 05:46:29;;;;;;;24.50;19.00;;;;;;;7.63;86.83;98034.73;88362;1274;99225;-73
2022/09/19 05:48:31;;;;;;;26.10;21.00;;;;;;;7.64;86.96;98034.52;88540;1271;24352;-72
2022/09/19 05:50:33;;;;;;;30.90;21.20;;;;;;;7.64;86.86;98039.39;88550;1271;22506;-74
2022/09/19 05:54:57;;;;;;;31.80;22.00;;;;;;;7.65;86.62;98043.01;88695;1273;22565;-74
2022/09/19 05:57:00;;;;;;;28.30;18.60;;;;;;;7.69;86.91;98047.77;88338;1274;22701;-75
2022/09/19 05:59:02;;;;;;;28.60;20.10;;;;;;;7.69;86.86;98047.20;88284;1274;99113;-75
2022/09/19 06:01:11;;;;;;;30.30;19.10;;;;;;;7.71;86.83;98048.70;88294;1276;22711;-74
2022/09/19 06:03:20;;;;;;;24.90;18.40;;;;;;;7.71;86.96;98050.26;88467;1275;22691;-74
2022/09/19 06:05:23;;;;;;;24.00;18.00;;;;;;;7.72;86.96;98050.20;88535;1274;99200;-74
2022/09/19 06:07:25;;;;;;;32.60;18.70;;;;;;;7.74;86.98;98049.21;89352;1276;22553;-74
2022/09/19 06:09:28;;;;;;;23.10;18.60;;;;;;;7.76;86.83;98053.31;88501;1273;23974;-74
2022/09/19 06:11:30;;;;;;;23.50;19.00;;;;;;;7.79;86.87;98057.73;88660;1274;99083;-74
2022/09/19 06:15:52;;;;;;;27.30;20.40;;;;;;;7.83;86.58;98061.69;88278;1273;99786;-74
2022/09/19 06:17:58;;;;;;;30.30;20.10;;;;;;;7.86;87.02;98054.92;88525;1273;25529;-74
2022/09/19 06:20:00;;;;;;;24.70;19.30;;;;;;;7.89;86.87;98054.59;88509;1273;22795;-74
2022/09/19 06:22:04;;;;;;;26.40;19.80;;;;;;;7.90;86.83;98053.99;88281;1273;99184;-74
2022/09/19 06:24:07;;;;;;;23.70;17.80;;;;;;;7.91;86.60;98060.59;88422;1273;22763;-74
2022/09/19 06:26:09;;;;;;;32.80;20.90;;;;;;;7.92;86.60;98068.08;88386;1275;22580;-75
2022/09/19 06:28:11;;;;;;;31.40;20.20;;;;;;;7.93;86.98;98067.48;88369;1273;99266;-75
2022/09/19 06:30:13;;;;;;;27.20;20.00;;;;;;;7.96;86.79;98069.26;88412;1274;24276;-74
2022/09/19 06:32:15;;;;;;;28.60;20.20;;;;;;;7.98;86.89;98071.94;88378;1274;22673;-75
2022/09/19 06:34:17;;;;;;;28.50;20.60;;;;;;;8.01;86.73;98073.02;88437;1274;99198;-75
2022/09/19 06:36:19;;;;;;;24.70;20.90;;;;;;;8.05;86.64;98075.97;88563;1274;25448;-74
2022/09/19 06:38:21;;;;;;;29.60;21.30;;;;;;;8.07;87.06;98074.64;88570;1274;24280;-75
2022/09/19 06:40:22;;;;;;;30.20;23.90;;;;;;;8.08;86.81;98076.34;88444;1274;98219;-74
2022/09/19 06:42:25;;;;;;;37.10;24.70;;;;;;;8.09;86.64;98077.30;88321;1274;24228;-74
2022/09/19 06:44:27;;;;;;;32.90;24.70;;;;;;;8.10;86.59;98076.91;88354;1276;23498;-74
2022/09/19 06:46:30;;;;;;;32.00;24.00;;;;;;;8.13;86.67;98078.32;88351;1276;98267;-74
2022/09/19 06:48:34;;;;;;;33.40;23.90;;;;;;;8.15;86.58;98081.36;88507;1274;22590;-74
2022/09/19 06:50:36;;;;;;;34.60;24.90;;;;;;;8.18;86.92;98084.02;88497;1274;23210;-74
2022/09/19 06:52:38;;;;;;;40.00;23.80;;;;;;;8.21;86.57;98084.41;88396;1274;100348;-74
2022/09/19 06:54:40;;;;;;;26.90;22.20;;;;;;;8.23;86.82;98083.43;88325;1276;25593;-74
2022/09/19 06:56:42;;;;;;;36.70;22.10;;;;;;;8.25;86.95;98088.57;88400;1273;22772;-74
2022/09/19 06:58:43;;;;;;;28.20;22.20;;;;;;;8.27;86.61;98088.14;88257;1275;99246;-74
2022/09/19 07:00:45;;;;;;;33.40;22.20;;;;;;;8.27;86.83;98090.17;88303;1274;23344;-74
2022/09/19 07:02:47;;;;;;;33.30;21.00;;;;;;;8.28;86.78;98091.19;88496;1274;22594;-74
2022/09/19 07:04:49;;;;;;;25.60;20.10;;;;;;;8.29;86.34;98100.21;88502;1277;99980;-74
2022/09/19 07:06:56;;;;;;;29.90;21.50;;;;;;;8.29;86.34;98101.64;88556;1276;22597;-74
2022/09/19 07:08:58;;;;;;;27.00;19.40;;;;;;;8.30;86.80;98105.27;88715;1274;22558;-74
2022/09/19 07:11:00;;;;;;;22.30;18.00;;;;;;;8.30;86.52;98108.42;88596;1273;99524;-75
2022/09/19 07:13:04;;;;;;;27.30;20.40;;;;;;;8.29;86.45;98108.15;88611;1273;22567;-74
2022/09/19 07:15:07;;;;;;;27.60;18.70;;;;;;;8.29;86.73;98107.77;88628;1276;22707;-76
2022/09/19 07:17:15;;;;;;;32.00;21.00;;;;;;;8.30;86.62;98109.61;88628;1273;99338;-74
2022/09/19 07:19:18;;;;;;;26.60;20.60;;;;;;;8.34;86.88;98111.90;88895;1273;22561;-72
2022/09/19 07:21:19;;;;;;;32.50;21.30;;;;;;;8.39;86.78;98109.35;88819;1273;24202;-73
2022/09/19 07:23:21;;;;;;;29.40;22.20;;;;;;;8.46;86.78;98107.95;88808;1273;98271;-74
2022/09/19 07:25:23;;;;;;;27.80;18.60;;;;;;;8.53;86.65;98111.45;88751;1274;22950;-73
2022/09/19 07:27:26;;;;;;;31.10;18.70;;;;;;;8.60;86.95;98115.79;88559;1276;23944;-74
2022/09/19 07:29:27;;;;;;;25.90;16.70;;;;;;;8.67;86.84;98119.08;88694;1273;99153;-73
2022/09/19 07:31:30;;;;;;;26.50;17.30;;;;;;;8.73;86.70;98120.19;88837;1274;22543;-73
2022/09/19 07:33:33;;;;;;;28.50;17.70;;;;;;;8.78;86.77;98123.02;88721;1276;22579;-74
2022/09/19 07:35:36;;;;;;;29.60;17.40;;;;;;;8.85;86.58;98124.59;88630;1275;99650;-73
2022/09/19 07:37:39;;;;;;;21.40;15.00;;;;;;;8.94;86.74;98129.72;88840;1274;22803;-73
2022/09/19 07:39:41;;;;;;;24.10;12.90;;;;;;;9.03;86.79;98131.14;88736;1274;98303;-73
2022/09/19 07:41:42;;;;;;;20.60;12.00;;;;;;;9.13;86.72;98131.30;88539;1276;23015;-73
2022/09/19 07:43:44;;;;;;;24.90;12.10;;;;;;;9.24;86.70;98131.89;88681;1274;22688;-74
2022/09/19 07:45:51;;;;;;;25.40;11.90;;;;;;;9.34;86.43;98133.42;88512;1274;99894;-74
2022/09/19 07:47:55;;;;;;;14.70;10.20;;;;;;;9.41;86.17;98133.61;88520;1277;24699;-73
2022/09/19 07:49:57;;;;;;;15.30;9.40;;;;;;;9.46;86.21;98137.88;88715;1274;22544;-73
2022/09/19 07:51:59;;;;;;;11.50;8.80;;;;;;;9.48;86.02;98133.38;88314;1274;99675;-73
2022/09/19 07:54:00;;;;;;;15.20;8.20;;;;;;;9.49;85.99;98138.37;88458;1274;24207;-72
2022/09/19 07:56:04;;;;;;;12.30;8.80;;;;;;;9.50;85.95;98139.77;88441;1273;22570;-73
2022/09/19 07:58:05;;;;;;;12.70;8.40;;;;;;;9.49;85.86;98142.39;88365;1274;99360;-72
2022/09/19 08:00:08;;;;;;;11.70;7.80;;;;;;;9.47;85.97;98144.61;88471;1273;23022;-72
2022/09/19 08:02:10;;;;;;;10.50;7.10;;;;;;;9.43;85.76;98149.59;88268;1276;26566;-72
2022/09/19 08:04:11;;;;;;;8.20;6.90;;;;;;;9.35;85.81;98149.37;88305;1274;98960;-74
2022/09/19 08:06:13;;;;;;;6.70;6.00;;;;;;;9.25;85.62;98149.20;88305;1276;22678;-73
2022/09/19 08:08:18;;;;;;;11.30;6.80;;;;;;;9.17;85.62;98150.73;88434;1274;22615;-73
2022/09/19 08:10:21;;;;;;;8.10;7.50;;;;;;;9.11;85.46;98154.91;88452;1274;99177;-73
2022/09/19 08:12:22;;;;;;;11.10;8.20;;;;;;;9.05;85.74;98153.66;88416;1274;22631;-74
2022/09/19 08:14:24;;;;;;;15.20;8.70;;;;;;;9.01;85.97;98152.81;88471;1276;24647;-73
2022/09/19 08:16:26;;;;;;;10.30;7.80;;;;;;;8.90;86.02;98135.16;88295;1276;101075;-73
2022/09/19 08:18:28;;;;;;;8.60;7.80;;;;;;;8.98;86.36;98149.27;88439;1274;22798;-74
2022/09/19 08:20:36;;;;;;;10.20;9.30;;;;;;;8.99;86.44;98150.79;88376;1275;24426;-72
2022/09/19 08:22:38;;;;;;;12.60;8.30;;;;;;;9.01;86.18;98150.34;88811;1276;99321;-73
2022/09/19 08:24:40;;;;;;;9.80;7.90;;;;;;;9.04;86.23;98150.75;88468;1273;22593;-72
2022/09/19 08:26:42;;;;;;;9.40;8.40;;;;;;;9.10;86.51;98152.00;88480;1273;22744;-72
2022/09/19 08:28:44;;;;;;;12.20;6.40;;;;;;;9.20;86.55;98153.19;88617;1274;97906;-72
2022/09/19 08:30:47;;;;;;;9.10;6.70;;;;;;;9.30;86.72;98155.92;88371;1278;26541;-72
2022/09/19 08:32:50;;;;;;;5.30;4.70;;;;;;;9.41;86.51;98154.09;88487;1273;22703;-73
2022/09/19 08:34:52;;;;;;;5.30;4.70;;;;;;;9.52;86.02;98154.17;88318;1273;98760;-73
2022/09/19 08:36:58;;;;;;;7.60;5.30;;;;;;;9.66;86.43;98150.21;88316;1274;22946;-72
2022/09/19 08:39:00;;;;;;;7.70;4.80;;;;;;;9.83;86.46;98152.22;88466;1274;24205;-72
2022/09/19 08:41:33;;;;;;;5.60;5.20;;;;;;;9.99;86.19;98152.11;88170;1277;99177;-74
2022/09/19 08:43:53;;;;;;;7.30;6.00;;;;;;;10.15;85.72;98147.89;88343;1275;22897;-73
2022/09/19 08:46:04;;;;;;;5.90;5.30;;;;;;;10.30;85.71;98146.11;88305;1274;99310;-73
2022/09/19 08:48:13;;;;;;;12.80;6.00;;;;;;;10.41;85.42;98146.34;88439;1274;22695;-74
2022/09/19 08:50:25;;;;;;;11.50;5.90;;;;;;;10.42;85.02;98147.56;88379;1274;25313;-74
2022/09/19 08:52:45;;;;;;;5.50;5.00;;;;;;;10.37;84.66;98150.41;88334;1274;99424;-74
2022/09/19 08:54:52;;;;;;;7.70;6.60;;;;;;;10.30;84.34;98146.80;88456;1273;22685;-74
2022/09/19 08:56:55;;;;;;;6.60;5.80;;;;;;;10.30;84.27;98146.47;88417;1274;22685;-74
2022/09/19 08:59:01;;;;;;;7.00;6.30;;;;;;;10.35;84.29;98144.09;88308;1273;99079;-74
2022/09/19 09:01:07;;;;;;;8.20;7.20;;;;;;;10.41;83.95;98142.15;88522;1274;24062;-74
2022/09/19 09:03:21;;;;;;;7.40;6.30;;;;;;;10.50;84.15;98142.27;88366;1274;24180;-73
2022/09/19 09:05:54;;;;;;;9.30;7.20;;;;;;;10.61;84.27;98138.63;88324;1274;99263;-74
2022/09/19 09:08:41;;;;;;;8.10;7.40;;;;;;;10.68;83.92;98137.11;88489;1273;25733;-74
2022/09/19 09:10:58;;;;;;;11.80;6.90;;;;;;;10.77;83.86;98130.98;88329;1274;98038;-74
2022/09/19 09:13:05;;;;;;;6.80;6.20;;;;;;;10.78;83.30;98128.63;88426;1273;22580;-74
2022/09/19 09:15:34;;;;;;;10.10;7.10;;;;;;;10.81;83.31;98125.10;88375;1274;22585;-74
2022/09/19 09:17:52;;;;;;;9.30;6.20;;;;;;;10.82;83.34;98128.86;88337;1274;99149;-74
2022/09/19 09:20:19;;;;;;;6.10;5.60;;;;;;;10.81;83.18;98126.53;88435;1273;22799;-75
2022/09/19 09:22:31;;;;;;;5.90;5.40;;;;;;;10.80;83.14;98127.80;88383;1273;99121;-74
2022/09/19 09:24:38;;;;;;;6.20;4.80;;;;;;;10.87;83.44;98130.52;88376;1274;24251;-75
2022/09/19 09:26:43;;;;;;;6.20;5.70;;;;;;;10.98;83.45;98130.54;88500;1273;22634;-75
2022/09/19 09:28:56;;;;;;;4.80;4.40;;;;;;;11.12;83.52;98127.91;88221;1276;99587;-74
2022/09/19 09:31:12;;;;;;;5.40;4.90;;;;;;;11.37;83.47;98129.09;88590;1273;24259;-75
2022/09/19 09:33:30;;;;;;;4.40;4.10;;;;;;;11.62;83.39;98128.15;88629;1274;25393;-74
2022/09/19 09:35:41;;;;;;;8.90;4.00;;;;;;;11.61;82.57;98115.60;89033;1273;98801;-75
2022/09/19 09:37:56;;;;;;;6.10;3.80;;;;;;;11.61;82.27;98127.56;88553;1275;22550;-76
2022/09/19 09:43:11;;;;;;;4.00;3.70;;;;;;;11.40;81.89;98135.05;88394;1273;25490;-75
2022/09/19 09:45:35;;;;;;;6.90;4.00;;;;;;;11.28;81.74;98137.27;88400;1274;24223;-74
2022/09/19 09:47:48;;;;;;;4.40;3.80;;;;;;;11.17;81.79;98139.35;88643;1273;22770;-75
2022/09/19 09:49:57;;;;;;;6.80;3.30;;;;;;;11.07;81.78;98143.83;88495;1275;23257;-75
2022/09/19 09:52:26;;;;;;;3.80;3.30;;;;;;;10.97;81.67;98146.39;88252;1274;99120;-76
2022/09/19 09:57:32;;;;;;;7.40;4.00;;;;;;;10.77;81.76;98153.34;88506;1273;23611;-73
2022/09/19 10:05:02;;;;;;;3.20;1.90;;;;;;;10.66;81.88;98169.94;88249;1279;22571;-74
2022/09/19 10:07:13;;;;;;;1.40;1.30;;;;;;;10.68;81.98;98171.56;87858;1280;99379;-75
2022/09/19 10:09:33;;;;;;;1.50;1.40;;;;;;;10.67;81.55;98167.40;88550;1280;24253;-75
2022/09/19 10:11:54;;;;;;;1.50;1.40;;;;;;;10.64;81.33;98170.95;88017;1282;24371;-75
2022/09/19 10:14:01;;;;;;;1.30;1.30;;;;;;;10.62;81.38;98169.14;88182;1281;22910;-75